Scottsboro, AL (35769)

12:28 AM CDT on July 26, 2014 (GMT -0500)
Scottsboro (K4A6) Elev 650 ft | 34.69 °N, 86.01 °W | Change Station

Current weather conditions updated 13 minutes ago

Clear
Clear
68 °F
Feels Like 68 °F
N
0
Wind Variable Wind from North

Today is forecast to be Warmer than yesterday.

Today
High -- | Low -- °F
--% Chance of Precip.
Yesterday
High -- | Low -- °F
Precip. -- in
5:49 AM 7:51 PM
Waning Crescent, 0% visible
Pressure 30.05 in
Visibility 6.0 miles
Clouds Clear
Dew Point 66 °F
Humidity 94%
Rainfall 0.00 in
Snow Depth Not available.
UV 0 out of 12
Pollen 3.50 out of 12
Air Quality Not available.
Flu Activity Not available.
METAR K4A6 260515Z AUTO 00000KT 6SM BR CLR 20/19 A3005 RMK AO2

More Conditions Fewer Conditions

Pressure 30.05 in
Visibility 6.0 miles
Clouds Clear
Dew Point 66 °F
Humidity 94%
Rainfall 0.00 in
Snow Depth Not available.
UV 0 out of 12
Pollen 3.50 out of 12
Air Quality Not available.
Flu Activity Not available.
METAR K4A6 260515Z AUTO 00000KT 6SM BR CLR 20/19 A3005 RMK AO2

More Conditions Fewer Conditions

10-Day Weather Forecast

Almanac

Astronomy

Jul. 26, 2014 Rise Set
Actual Time 5:49 AM CDT 7:51 PM CDT
Civil Twilight 5:21 AM CDT 8:19 PM CDT
Nautical Twilight 4:47 AM CDT 8:53 PM CDT
Astronomical Twilight 4:11 AM CDT 9:29 PM CDT
Moon 5:39 AM CDT 7:29 PM CDT
Length of Visible Light 14h 57m
Length of Day
14h 01m
Tomorrow will be 1m 28s shorter.
Waning Crescent, 0% of the Moon is Illuminated
Today
Waning Crescent
Jul 26
New
Aug 3
First Quarter
Aug 10
Full
Aug 17
Last Quarter

Today's Extremes

State Highs State Lows

Community

WunderPhotos

Upload Photos

1,737,521 photos uploaded!

Nearby

Snow Depth

Station Depth Elevation
No new snow has been reported.

Earthquake Activity

City Distance Mag. Time & Date
No recent earthquake activity has been reported nearby.
Minimum magnitude displayed is 2.5.

Coastal Water Temperatures

Place Temperature
No Stations Reporting

Nearby Weather Stations

Station Location Temp. Heat Index Dew Point Humidity Wind Precip. Elev Updated Type
HCN SCOTTSBORO AIRPORT 2 NE AL , Hollywood, AL 67 °F - - - North  at  - 0.00 in / hr 636 ft 11:35 PM CDT MADIS
Marshall County District 2, Grant, AL 70.3 °F 71 °F 64 °F 81% WNW  at  0.0 mph - / hr 1217 ft 12:24 AM CDT Normal
Rock Creek Bloodhounds, Fort Payne, AL 63.5 °F - 60 °F 89% NNW  at  14.1 mph 0.00 in / hr 1162 ft 12:28 AM CDT Rapid Fire
Keel Mountain, Gurley, AL 68.0 °F - 50 °F 52% North  at  0.0 mph 0.00 in / hr 1572 ft 12:21 AM CDT Normal
Gurley, Gurley, AL 66.2 °F - 65 °F 96% East  at  0.0 mph 0.00 in / hr 745 ft 12:28 AM CDT Normal
Arbor Woods, Hampton Cove, AL 68.0 °F - 58 °F 69% West  at  0.7 mph 0.00 in / hr 614 ft 12:28 AM CDT Rapid Fire
Bristol Creek, Owens Cross Roads, AL 68.0 °F - 65 °F 90% North  at  0.0 mph 0.00 in / hr 577 ft 1:28 AM EDT Rapid Fire
Desoto Country Club, Fort Payne, AL 65.7 °F - 63 °F 92% ESE  at  0.0 mph - / hr 978 ft 12:16 AM CDT Normal

Show More Stations Show Fewer Stations